Time;durP1;ratioP1;P1;durP2;ratioP2;P2;SDS_P1;SDS_P2;PMS_P1;PMS_P2;Temp;Humidity;BMP_temperature;BMP_pressure;BME280_temperature;BME280_humidity;BME280_pressure;Samples;Min_cycle;Max_cycle;Signal;HPM_P1;HPM_P2
2021/03/09 00:02:09;;;;;;;12.83;5.70;;;;;;;;;;5075762;28;20590;-71
2021/03/09 00:04:35;;;;;;;17.50;7.13;;;;;;;;;;5076678;28;20386;-71
2021/03/09 00:07:01;;;;;;;16.27;7.13;;;;;;;;;;5075346;28;20530;-71
2021/03/09 00:09:27;;;;;;;14.90;6.60;;;;;;;;;;5076357;28;20397;-71
2021/03/09 00:11:53;;;;;;;22.77;6.90;;;;;;;;;;5076441;28;20385;-71
2021/03/09 00:14:19;;;;;;;13.88;7.15;;;;;;;;;;5076179;28;20393;-71
2021/03/09 00:16:45;;;;;;;22.63;7.00;;;;;;;;;;5075303;28;20210;-70
2021/03/09 00:19:11;;;;;;;16.92;7.90;;;;;;;;;;5075978;28;20749;-71
2021/03/09 00:21:37;;;;;;;29.25;7.05;;;4.10;1.00;;;;;;5062685;28;20184;-71
2021/03/09 00:24:02;;;;;;;14.00;6.37;;;4.10;1.00;;;;;;5065593;28;20245;-71
2021/03/09 00:26:28;;;;;;;14.77;6.40;;;;;;;;;;5075169;28;20194;-71
2021/03/09 00:28:54;;;;;;;16.30;7.17;;;;;;;;;;5076038;28;20619;-71
2021/03/09 00:31:20;;;;;;;20.07;6.80;;;;;;;;;;5076493;28;20447;-76
2021/03/09 00:33:46;;;;;;;9.40;5.22;;;;;;;;;;5061570;28;20437;-76
2021/03/09 00:36:12;;;;;;;12.85;6.45;;;;;;;;;;5069517;28;20617;-76
2021/03/09 00:38:38;;;;;;;13.83;6.90;;;;;;;;;;5076330;28;20159;-76
2021/03/09 00:41:04;;;;;;;20.13;6.72;;;;;;;;;;5070460;28;20394;-76
2021/03/09 00:43:30;;;;;;;14.45;7.88;;;4.10;1.00;;;;;;5055956;28;20156;-76
2021/03/09 00:45:56;;;;;;;17.93;7.03;;;;;;;;;;5056313;28;20302;-75
2021/03/09 00:48:22;;;;;;;15.17;6.30;;;;;;;;;;5056363;28;20545;-76
2021/03/09 00:50:48;;;;;;;12.03;6.37;;;;;;;;;;5067909;28;20500;-76
2021/03/09 00:53:14;;;;;;;15.20;7.40;;;;;;;;;;5075653;28;20402;-76
2021/03/09 00:55:41;;;;;;;13.90;6.47;;;;;;;;;;5075781;28;20449;-76
2021/03/09 00:58:07;;;;;;;21.17;5.80;;;;;;;;;;5075761;28;20155;-76
2021/03/09 01:00:33;;;;;;;20.50;7.20;;;;;;;;;;5074282;28;20193;-76
2021/03/09 01:02:59;;;;;;;12.95;6.18;;;;;;;;;;5075479;28;20398;-76
2021/03/09 01:05:25;;;;;;;13.18;6.15;;;4.10;1.00;;;;;;5061818;28;20184;-76
2021/03/09 01:07:51;;;;;;;18.50;6.10;;;;;;;;;;5055634;28;20233;-76
2021/03/09 01:10:19;;;;;;;13.00;6.10;;;4.10;1.00;;;;;;5055225;28;20635;-76
2021/03/09 01:12:46;;;;;;;19.02;6.75;;;;;;;;;;5055390;28;20901;-76
2021/03/09 01:15:12;;;;;;;15.43;6.75;;;4.10;1.00;;;;;;5055061;28;20168;-76
2021/03/09 01:17:38;;;;;;;20.02;6.30;;;;;;;;;;5055631;28;20238;-71
2021/03/09 01:20:06;;;;;;;13.18;5.90;;;4.10;1.00;;;;;;5066193;28;20495;-71
2021/03/09 01:22:32;;;;;;;16.38;7.78;;;;;;;;;;5073880;28;20182;-71
2021/03/09 01:24:58;;;;;;;17.15;6.60;;;;;;;;;;5070891;28;20183;-71
2021/03/09 01:27:24;;;;;;;15.38;6.80;;;;;;;;;;5074012;28;20191;-71
2021/03/09 01:29:50;;;;;;;18.17;7.07;;;;;;;;;;5074988;28;20159;-71
2021/03/09 01:32:16;;;;;;;14.30;6.40;;;;;;;;;;5075474;28;20156;-76
2021/03/09 01:34:42;;;;;;;17.00;6.57;;;4.10;1.00;;;;;;5062835;28;20784;-76
2021/03/09 01:37:08;;;;;;;14.67;6.60;;;;;;;;;;5054814;28;20446;-76
2021/03/09 01:39:34;;;;;;;12.55;7.18;;;;;;;;;;5054763;28;20623;-76
2021/03/09 01:42:00;;;;;;;12.45;6.38;;;;;;;;;;5054828;28;20249;-76
2021/03/09 01:44:27;;;;;;;15.27;7.45;;;;;;;;;;5054840;28;20221;-76
2021/03/09 01:46:55;;;;;;;13.65;6.70;;;4.10;1.00;;;;;;5055146;28;20167;-76
2021/03/09 01:49:21;;;;;;;14.98;6.97;;;;;;;;;;5053748;28;20175;-76
2021/03/09 01:51:53;;;;;;;16.25;6.72;;;4.00;1.00;;;;;;5054792;28;20168;-76
2021/03/09 01:54:19;;;;;;;17.38;6.63;;;4.00;1.00;;;;;;5065473;28;20541;-76
2021/03/09 01:56:45;;;;;;;15.65;6.18;;;;;;;;;;5074583;28;20191;-76
2021/03/09 01:59:13;;;;;;;18.02;7.60;;;4.00;1.00;;;;;;5074321;28;20187;-76
2021/03/09 02:01:39;;;;;;;15.18;6.30;;;;;;;;;;5074794;28;20164;-71
2021/03/09 02:04:04;;;;;;;17.00;6.72;;;4.00;1.00;;;;;;5063231;28;20167;-71
2021/03/09 02:06:30;;;;;;;13.13;6.00;;;;;;;;;;5054364;28;20171;-71
2021/03/09 02:08:57;;;;;;;14.63;6.10;;;;;;;;;;5054182;28;20695;-71
2021/03/09 02:11:32;;;;;;;15.20;6.85;;;3.90;1.00;;;;;;5054191;28;20398;-71
2021/03/09 02:14:13;;;;;;;15.80;7.18;;;3.90;1.00;;;;;;5053924;28;20156;-71
2021/03/09 02:16:51;;;;;;;13.65;6.10;;;3.90;1.00;;;;;;5053328;28;20542;-75
2021/03/09 02:19:31;;;;;;;13.13;6.72;;;3.80;1.00;;;;;;5061425;28;20158;-71
2021/03/09 02:22:26;;;;;;;17.52;7.03;;;3.80;1.00;;;;;;5073911;28;20171;-71
2021/03/09 02:25:51;;;;;;;21.50;6.07;;;3.80;1.00;;;;;;5073546;28;20159;-71
2021/03/09 02:29:02;;;;;;;9.85;5.70;;;3.70;1.00;;;;;;4914212;29;20224;-71
2021/03/09 02:31:29;;;;;;;13.50;5.85;;;3.60;1.00;;;;;;4896559;29;20217;-71
2021/03/09 02:34:00;;;;;;;11.57;5.55;;;3.50;1.00;;;;;;4896553;29;20189;-76
2021/03/09 02:36:29;;;;;;;12.05;5.55;;;3.50;1.00;;;;;;4896229;29;20464;-76
2021/03/09 02:39:00;;;;;;;12.73;6.30;;;3.50;1.00;;;;;;4896475;29;20185;-76
2021/03/09 02:41:28;;;;;;;13.60;6.03;;;3.40;1.00;;;;;;4896662;29;20244;-76
2021/03/09 02:43:55;;;;;;;10.30;5.43;;;3.40;1.00;;;;;;4896498;29;20265;-76
2021/03/09 02:46:25;;;;;;;15.65;6.10;;;3.40;1.00;;;;;;4896412;29;20268;-76
2021/03/09 02:48:52;;;;;;;12.93;6.63;;;;;;;;;;4896021;29;20181;-71
2021/03/09 02:51:22;;;;;;;16.85;6.38;;;3.40;1.00;;;;;;4896021;29;20189;-71
2021/03/09 02:53:55;;;;;;;12.23;5.15;;;3.30;1.00;;;;;;4896134;29;20264;-71
2021/03/09 02:56:23;;;;;;;12.15;6.35;;;3.30;1.00;;;;;;4895953;29;20205;-71
2021/03/09 02:58:54;;;;;;;13.63;6.13;;;3.30;1.00;;;;;;4901244;29;20188;-71
2021/03/09 03:01:23;;;;;;;8.18;5.32;;;3.30;1.00;;;;;;4914980;29;20172;-71
2021/03/09 03:03:51;;;;;;;10.57;5.45;;;3.20;1.00;;;;;;4924416;28;20217;-71
2021/03/09 03:06:17;;;;;;;18.13;6.70;;;;;;;;;;5065697;28;20233;-71
2021/03/09 03:08:44;;;;;;;10.00;6.03;;;3.20;1.00;;;;;;5088891;28;20288;-71
2021/03/09 03:11:12;;;;;;;13.18;6.40;;;3.30;1.00;;;;;;5092996;28;20181;-71
2021/03/09 03:13:40;;;;;;;16.00;6.15;;;3.20;1.00;;;;;;5093324;28;20162;-71
2021/03/09 03:16:07;;;;;;;11.10;5.75;;;3.20;1.00;;;;;;5093436;28;20197;-71
2021/03/09 03:18:38;;;;;;;19.15;5.90;;;3.10;1.00;;;;;;5058629;28;20186;-76
2021/03/09 03:21:07;;;;;;;16.40;6.10;;;3.20;1.00;;;;;;5052566;28;20192;-76
2021/03/09 03:23:33;;;;;;;11.27;5.38;;;;;;;;;;5068975;28;20237;-76
2021/03/09 03:26:04;;;;;;;9.70;5.60;;;3.20;1.00;;;;;;5072398;28;20194;-76
2021/03/09 03:28:31;;;;;;;12.75;5.30;;;3.20;1.00;;;;;;5068607;28;20219;-76
2021/03/09 03:30:57;;;;;;;17.73;7.28;;;;;;;;;;5072892;28;20178;-76
2021/03/09 03:33:24;;;;;;;10.73;4.90;;;;;;;;;;5055434;28;20175;-76
2021/03/09 03:35:49;;;;;;;11.70;6.00;;;3.20;1.00;;;;;;5052741;28;20473;-76
2021/03/09 03:38:17;;;;;;;11.02;5.75;;;3.10;1.00;;;;;;5053126;28;20179;-76
2021/03/09 03:40:43;;;;;;;11.63;6.07;;;3.10;1.00;;;;;;5068297;28;20297;-76
2021/03/09 03:43:09;;;;;;;10.43;5.00;;;3.10;1.00;;;;;;5052853;28;20599;-76
2021/03/09 03:45:35;;;;;;;9.98;5.00;;;;;;;;;;5052894;28;20159;-76
2021/03/09 03:48:01;;;;;;;13.90;5.40;;;;;;;;;;5069838;28;20183;-71
2021/03/09 03:50:30;;;;;;;13.77;5.47;;;3.20;1.00;;;;;;5072516;28;20476;-71
2021/03/09 03:53:17;;;;;;;13.07;5.70;;;3.20;1.00;;;;;;5072693;28;20208;-71
2021/03/09 03:56:14;;;;;;;9.07;4.50;;;3.20;1.00;;;;;;5072509;28;20191;-71
2021/03/09 03:58:47;;;;;;;15.82;5.65;;;3.10;1.00;;;;;;5072624;28;20216;-71
2021/03/09 04:01:15;;;;;;;11.60;4.90;;;3.20;1.00;;;;;;5067905;28;20499;-71
2021/03/09 04:03:41;;;;;;;10.90;5.13;;;;;;;;;;5052714;28;20632;-71
2021/03/09 04:06:08;;;;;;;10.60;4.75;;;3.10;1.00;;;;;;5069928;28;20317;-71
2021/03/09 04:08:37;;;;;;;13.95;5.07;;;3.10;1.00;;;;;;5071725;28;20175;-71
2021/03/09 04:11:04;;;;;;;20.63;6.72;;;3.10;1.00;;;;;;5072425;28;20163;-71
2021/03/09 04:13:36;;;;;;;10.55;5.47;;;3.00;1.00;;;;;;5072494;28;20171;-71
2021/03/09 04:16:04;;;;;;;9.75;5.35;;;3.00;1.00;;;;;;5071870;28;20276;-71
2021/03/09 04:18:31;;;;;;;15.00;5.43;;;3.00;1.00;;;;;;5071418;28;20642;-76
2021/03/09 04:20:57;;;;;;;11.45;5.35;;;2.90;1.00;;;;;;5072161;28;20168;-76
2021/03/09 04:23:24;;;;;;;11.98;5.80;;;2.90;1.00;;;;;;5057846;28;20172;-76
2021/03/09 04:25:52;;;;;;;12.00;5.50;;;2.90;1.00;;;;;;5052760;28;20251;-76
2021/03/09 04:28:18;;;;;;;8.52;4.97;;;2.90;1.00;;;;;;5060678;28;20229;-76
2021/03/09 04:30:44;;;;;;;9.32;5.00;;;;;;;;;;5070415;28;20273;-76
2021/03/09 04:33:10;;;;;;;12.35;5.80;;;;;;;;;;5072621;28;20219;-70
2021/03/09 04:35:37;;;;;;;7.45;4.80;;;2.90;1.00;;;;;;5072079;28;20286;-71
2021/03/09 04:38:03;;;;;;;9.48;5.72;;;2.80;1.00;;;;;;5072118;28;20187;-71
2021/03/09 04:40:30;;;;;;;10.25;4.95;;;2.80;1.00;;;;;;5075871;28;20156;-71
2021/03/09 04:42:57;;;;;;;12.60;5.30;;;2.80;1.00;;;;;;5068622;28;20168;-71
2021/03/09 04:45:23;;;;;;;11.70;5.68;;;;;;;;;;5055860;28;20202;-71
2021/03/09 04:47:49;;;;;;;9.95;4.88;;;2.70;1.00;;;;;;5055726;28;20203;-71
2021/03/09 04:50:16;;;;;;;12.75;5.65;;;2.70;1.00;;;;;;5071827;28;20575;-71
2021/03/09 04:52:51;;;;;;;12.13;5.45;;;2.70;1.00;;;;;;5055757;28;20235;-71
2021/03/09 04:55:24;;;;;;;9.65;5.07;;;2.70;1.00;;;;;;5076635;28;20203;-71
2021/03/09 04:57:50;;;;;;;12.30;5.20;;;;;;;;;;5061657;28;20230;-71
2021/03/09 05:00:18;;;;;;;18.25;7.03;;;2.80;1.00;;;;;;5055469;28;20160;-71
2021/03/09 05:02:49;;;;;;;13.02;5.40;;;2.70;1.00;;;;;;5054250;28;20700;-71
2021/03/09 05:05:17;;;;;;;15.10;6.50;;;2.70;1.00;;;;;;5056084;28;20160;-76
2021/03/09 05:07:43;;;;;;;23.63;5.95;;;2.70;1.00;;;;;;5055627;28;20247;-76
2021/03/09 05:10:09;;;;;;;13.50;5.67;;;2.80;1.00;;;;;;5055544;28;20572;-76
2021/03/09 05:12:38;;;;;;;17.60;5.35;;;2.70;1.00;;;;;;5063871;28;20911;-76
2021/03/09 05:15:05;;;;;;;12.35;6.25;;;2.70;1.00;;;;;;5075119;28;20230;-76
2021/03/09 05:17:30;;;;;;;10.95;5.50;;;2.80;1.00;;;;;;5075480;28;20557;-76
2021/03/09 05:19:56;;;;;;;13.47;6.73;;;;;;;;;;5075169;28;20179;-76
2021/03/09 05:22:22;;;;;;;14.15;6.30;;;2.80;1.00;;;;;;5069029;28;20159;-76
2021/03/09 05:24:48;;;;;;;15.23;6.40;;;2.80;1.00;;;;;;5055437;28;20171;-76
2021/03/09 05:27:14;;;;;;;11.20;5.07;;;;;;;;;;5055577;28;20520;-76
2021/03/09 05:29:40;;;;;;;10.70;4.93;;;;;;;;;;5068665;28;20189;-76
2021/03/09 05:32:06;;;;;;;14.50;6.40;;;2.80;1.00;;;;;;5074786;28;20429;-76
2021/03/09 05:34:32;;;;;;;11.97;5.13;;;;;;;;;;5075339;28;20457;-76
2021/03/09 05:36:58;;;;;;;10.93;5.30;;;;;;;;;;5074969;28;20465;-76
2021/03/09 05:39:24;;;;;;;16.27;6.73;;;;;;;;;;5075022;28;20393;-76
2021/03/09 05:41:50;;;;;;;10.30;5.53;;;;;;;;;;5074114;28;20942;-76
2021/03/09 05:44:16;;;;;;;9.18;5.65;;;;;;;;;;5074845;28;20393;-76
2021/03/09 05:46:42;;;;;;;13.77;6.75;;;;;;;;;;5074731;28;20163;-76
2021/03/09 05:49:09;;;;;;;18.55;6.63;;;2.90;1.00;;;;;;5075319;28;20527;-76
2021/03/09 05:51:35;;;;;;;19.95;6.72;;;;;;;;;;5074747;28;20336;-76
2021/03/09 05:54:05;;;;;;;17.23;7.53;;;2.90;1.00;;;;;;5074683;28;20179;-76
2021/03/09 05:56:31;;;;;;;28.45;5.55;;;2.90;1.00;;;;;;5073767;28;20205;-76
2021/03/09 05:58:57;;;;;;;14.63;6.50;;;;;;;;;;5074360;28;20163;-76
2021/03/09 06:01:23;;;;;;;16.88;6.72;;;;;;;;;;5074536;28;20521;-77
2021/03/09 06:03:49;;;;;;;13.85;6.63;;;;;;;;;;5074872;28;20301;-72
2021/03/09 06:06:15;;;;;;;16.00;6.65;;;3.00;1.00;;;;;;5074328;28;20166;-71
2021/03/09 06:08:41;;;;;;;21.90;7.77;;;;;;;;;;5074335;28;20167;-73
2021/03/09 06:11:17;;;;;;;16.02;6.55;;;3.00;1.00;;;;;;5072619;28;20163;-71
2021/03/09 06:13:43;;;;;;;13.25;6.43;;;;;;;;;;5073884;28;20163;-71
2021/03/09 06:16:10;;;;;;;14.63;6.85;;;;;;;;;;5073881;28;20209;-71
2021/03/09 06:18:36;;;;;;;17.95;7.50;;;;;;;;;;5065132;28;20582;-71
2021/03/09 06:21:09;;;;;;;19.95;8.35;;;3.10;1.00;;;;;;5054186;28;20244;-76
2021/03/09 06:23:35;;;;;;;14.77;5.70;;;;;;;;;;5070328;28;20198;-76
2021/03/09 06:26:02;;;;;;;14.60;6.53;;;;;;;;;;5072508;28;20167;-76
2021/03/09 06:28:31;;;;;;;20.75;6.90;;;3.20;1.00;;;;;;5073758;28;20167;-76
2021/03/09 06:31:01;;;;;;;14.30;6.30;;;3.30;1.00;;;;;;5065830;28;20605;-76
2021/03/09 06:33:29;;;;;;;19.98;7.28;;;3.30;1.00;;;;;;5062989;28;20700;-76
2021/03/09 06:36:00;;;;;;;16.92;6.85;;;;;;;;;;5073585;28;20218;-76
2021/03/09 06:38:30;;;;;;;13.20;6.55;;;3.30;1.00;;;;;;5053702;28;20182;-76
2021/03/09 06:41:17;;;;;;;15.30;7.30;;;3.40;1.00;;;;;;5059801;28;20183;-76
2021/03/09 06:43:46;;;;;;;13.50;7.65;;;3.40;1.00;;;;;;5073571;28;20179;-76
2021/03/09 06:46:20;;;;;;;20.27;8.07;;;3.50;1.00;;;;;;5073558;28;20163;-76
2021/03/09 06:48:48;;;;;;;14.65;7.10;;;3.50;1.00;;;;;;5073148;28;20163;-77
2021/03/09 06:51:43;;;;;;;17.77;8.18;;;3.60;1.00;;;;;;5073751;28;20171;-71
2021/03/09 06:54:10;;;;;;;20.08;7.25;;;3.70;1.00;;;;;;5050791;28;20185;-72
2021/03/09 06:56:38;;;;;;;16.73;7.38;;;3.70;1.00;;;;;;5049456;28;20253;-71
2021/03/09 06:59:27;;;;;;;16.52;7.65;;;3.80;1.00;;;;;;5050708;28;20191;-71
2021/03/09 07:02:21;;;;;;;10.57;6.15;;;3.90;1.00;;;;;;5050448;28;20183;-71
2021/03/09 07:05:10;;;;;;;16.23;7.00;;;4.00;1.00;;;;;;4953101;29;20274;-71
2021/03/09 07:07:40;;;;;;;19.17;7.72;;;4.10;1.00;;;;;;4950798;28;20197;-71
2021/03/09 07:10:08;;;;;;;14.00;7.25;;;4.10;1.00;;;;;;4952656;28;20194;-71
2021/03/09 07:12:36;;;;;;;17.38;7.50;;;4.30;1.00;;;;;;4952783;29;20198;-71
2021/03/09 07:15:03;;;;;;;18.95;8.30;;;4.30;1.00;;;;;;4940236;28;20557;-71
2021/03/09 07:17:31;;;;;;;15.52;7.70;;;4.40;1.00;;;;;;4951531;29;20223;-71
2021/03/09 07:19:58;;;;;;;17.00;7.22;;;4.50;1.00;;;;;;4945104;29;20427;-71
2021/03/09 07:22:25;;;;;;;15.93;6.68;;;4.60;1.00;;;;;;4933358;29;20194;-71
2021/03/09 07:24:51;;;;;;;18.80;8.32;;;;;;;;;;4940094;29;20246;-71
2021/03/09 07:27:21;;;;;;;24.33;7.60;;;4.60;1.00;;;;;;4952598;29;20171;-71
2021/03/09 07:29:54;;;;;;;16.48;7.70;;;4.60;1.00;;;;;;4966266;28;20487;-71
2021/03/09 07:32:26;;;;;;;16.08;7.65;;;4.70;1.00;;;;;;4968006;28;20193;-71
2021/03/09 07:34:52;;;;;;;17.90;8.13;;;4.90;1.00;;;;;;4966163;28;20685;-76
2021/03/09 07:37:18;;;;;;;19.17;8.00;;;;;;;;;;4967121;28;20218;-76
2021/03/09 07:39:46;;;;;;;17.95;7.20;;;5.00;1.00;;;;;;4971204;28;20261;-77
2021/03/09 07:42:12;;;;;;;17.20;7.80;;;;;;;;;;5029819;28;20176;-76
2021/03/09 07:44:39;;;;;;;22.40;8.40;;;5.20;1.00;;;;;;5053513;28;20246;-76
2021/03/09 07:47:10;;;;;;;14.48;7.15;;;5.30;1.00;;;;;;5054093;28;20174;-76
2021/03/09 07:49:39;;;;;;;21.25;8.23;;;5.40;1.00;;;;;;5064189;28;20175;-75
2021/03/09 07:52:18;;;;;;;14.18;7.45;;;5.40;1.00;;;;;;5065690;28;20170;-76
2021/03/09 07:55:07;;;;;;;12.75;7.55;;;5.50;1.00;;;;;;5072156;28;20187;-76
2021/03/09 07:57:33;;;;;;;18.40;8.10;;;5.70;1.00;;;;;;5011621;28;20647;-77
2021/03/09 08:00:01;;;;;;;17.13;7.40;;;5.90;1.00;;;;;;5011588;28;20579;-76
2021/03/09 08:02:57;;;;;;;17.25;7.80;;;6.00;1.00;;;;;;5010696;28;20695;-76
2021/03/09 08:05:29;;;;;;;21.30;7.97;;;6.10;1.00;;;;;;5019109;28;20175;-71
2021/03/09 08:08:02;;;;;;;18.80;8.20;;;6.40;1.00;;;;;;5028581;28;20438;-71
2021/03/09 08:10:28;;;;;;;15.73;7.60;;;;;;;;;;5018881;28;20455;-71
2021/03/09 08:13:19;;;;;;;16.10;7.87;;;6.70;1.00;;;;;;5025161;28;20450;-71
2021/03/09 08:15:45;;;;;;;18.20;8.33;;;;;;;;;;5017171;28;20885;-71
2021/03/09 08:18:17;;;;;;;18.43;8.00;;;7.00;1.00;;;;;;5034180;28;20422;-71
2021/03/09 08:20:53;;;;;;;20.27;8.57;;;7.20;1.00;;;;;;5015913;28;20838;-76
2021/03/09 08:23:34;;;;;;;21.50;8.83;;;7.40;1.00;;;;;;5014346;28;20397;-76
2021/03/09 08:26:01;;;;;;;16.13;8.27;;;7.60;1.00;;;;;;5029519;28;20872;-76
2021/03/09 08:28:40;;;;;;;15.47;8.13;;;7.70;1.00;;;;;;5033895;28;20875;-76
2021/03/09 08:31:12;;;;;;;18.00;8.40;;;7.80;1.00;;;;;;5033640;28;20482;-76
2021/03/09 08:34:07;;;;;;;17.30;7.60;;;7.80;1.00;;;;;;5032953;28;20434;-76
2021/03/09 08:36:36;;;;;;;18.33;8.40;;;7.80;1.00;;;;;;4994464;28;20989;-71
2021/03/09 08:39:02;;;;;;;15.53;7.50;;;7.80;1.00;;;;;;4994353;28;20770;-71
2021/03/09 08:41:37;;;;;;;19.63;8.30;;;7.80;1.00;;;;;;4977841;28;20424;-71
2021/03/09 08:46:52;;;;;;;16.70;7.60;;;7.80;1.00;;;;;;4994113;28;20511;-71
2021/03/09 08:49:36;;;;;;;17.63;8.17;;;7.70;1.00;;;;;;5004787;28;20422;-71
2021/03/09 08:52:07;;;;;;;25.97;8.43;;;7.70;1.00;;;;;;5014055;28;20392;-71
2021/03/09 08:54:48;;;;;;;14.20;7.23;;;7.70;1.00;;;;;;5001990;28;20436;-71
2021/03/09 08:57:14;;;;;;;17.03;7.97;;;;;;;;;;4994976;28;20452;-71
2021/03/09 08:59:42;;;;;;;19.23;8.20;;;7.90;1.00;;;;;;5013368;28;20499;-71
2021/03/09 09:02:12;;;;;;;16.37;7.40;;;;;;;;;;5013212;28;20446;-71
2021/03/09 09:04:40;;;;;;;16.70;8.20;;;8.10;1.00;;;;;;5013037;28;20400;-71
2021/03/09 09:07:29;;;;;;;14.63;7.27;;;8.30;1.00;;;;;;5013848;28;20419;-71
2021/03/09 09:10:03;;;;;;;15.60;7.90;;;8.40;1.00;;;;;;5013290;28;20408;-71
2021/03/09 09:12:29;;;;;;;11.50;6.43;;;;;;;;;;5019818;28;20425;-71
2021/03/09 09:15:08;;;;;;;17.93;7.60;;;;;;;;;;5054971;28;20760;-71
2021/03/09 09:17:34;;;;;;;15.80;7.70;;;;;;;;;;5055414;28;20453;-71
2021/03/09 09:20:04;;;;;;;16.47;7.00;;;8.40;1.00;;;;;;5054879;28;20395;-71
2021/03/09 09:22:30;;;;;;;16.60;7.60;;;;;;;;;;5070993;28;20878;-76
2021/03/09 09:24:57;;;;;;;14.90;6.70;;;8.50;1.00;;;;;;5068908;28;20412;-76
2021/03/09 09:27:24;;;;;;;13.23;6.40;;;8.50;1.00;;;;;;5075267;28;20494;-76
2021/03/09 09:29:56;;;;;;;16.43;7.17;;;8.70;1.00;;;;;;5086073;28;20535;-76
2021/03/09 09:32:23;;;;;;;12.80;6.40;;;8.80;1.00;;;;;;5090382;28;20490;-76
2021/03/09 09:34:57;;;;;;;15.87;7.17;;;8.90;1.00;;;;;;5062692;28;21012;-76
2021/03/09 09:37:23;;;;;;;16.53;7.70;;;;;;;;;;5055086;28;20464;-75
2021/03/09 09:39:49;;;;;;;19.57;7.43;;;;;;;;;;5056959;28;20417;-74
2021/03/09 09:42:19;;;;;;;13.93;7.10;;;9.00;1.00;;;;;;5074540;28;20389;-74
2021/03/09 09:44:46;;;;;;;13.90;7.03;;;9.20;1.00;;;;;;5074835;28;20393;-74
2021/03/09 09:47:14;;;;;;;11.57;6.00;;;9.10;1.00;;;;;;5074732;28;20501;-76
2021/03/09 09:49:44;;;;;;;14.27;6.43;;;9.20;1.00;;;;;;5074677;28;20416;-76
2021/03/09 09:52:11;;;;;;;16.93;6.77;;;9.30;1.00;;;;;;5074772;28;20393;-76
2021/03/09 09:54:37;;;;;;;16.10;6.80;;;9.40;1.00;;;;;;5074386;28;20417;-76
2021/03/09 09:57:09;;;;;;;10.90;6.40;;;9.60;1.00;;;;;;5074453;28;20441;-77
2021/03/09 09:59:36;;;;;;;12.60;6.77;;;;;;;;;;5074488;28;20156;-77
2021/03/09 10:02:14;;;;;;;13.43;6.90;;;9.60;1.00;;;;;;5074338;28;20390;-76
2021/03/09 10:04:40;;;;;;;11.90;5.80;;;9.70;1.00;;;;;;5074363;28;20401;-75
2021/03/09 10:07:20;;;;;;;13.67;7.23;;;9.80;1.00;;;;;;5074464;28;20405;-75
2021/03/09 10:10:06;;;;;;;18.37;6.03;;;9.80;1.00;;;;;;5074229;28;20233;-75
2021/03/09 10:12:42;;;;;;;12.93;5.73;;;9.50;1.00;;;;;;5074064;28;20504;-75
2021/03/09 10:15:09;;;;;;;12.50;6.47;;;9.70;1.00;;;;;;5072648;28;20432;-79
2021/03/09 10:17:35;;;;;;;11.63;6.20;;;9.80;1.00;;;;;;5072760;28;20975;-78
2021/03/09 10:20:04;;;;;;;13.93;6.90;;;9.80;1.00;;;;;;5072622;28;20401;-80
2021/03/09 10:22:29;;;;;;;9.87;5.90;;;9.70;1.00;;;;;;5074185;28;20397;-81
2021/03/09 10:25:12;;;;;;;12.27;6.53;;;9.70;1.00;;;;;;5073833;28;20815;-80
2021/03/09 10:27:41;;;;;;;13.43;6.13;;;9.60;1.00;;;;;;5074164;28;20187;-80
2021/03/09 10:30:08;;;;;;;13.53;6.10;;;9.70;1.00;;;;;;5087397;28;20431;-80
2021/03/09 10:32:52;;;;;;;14.70;6.03;;;9.50;1.00;;;;;;5094162;28;20409;-80
2021/03/09 10:35:17;;;;;;;12.70;5.27;;;9.30;1.00;;;;;;5069019;28;20494;-81
2021/03/09 10:37:43;;;;;;;9.57;4.73;;;;;;;;;;5073390;28;20409;-78
2021/03/09 10:40:14;;;;;;;17.40;6.13;;;9.10;1.00;;;;;;5073830;28;20405;-75
2021/03/09 10:42:43;;;;;;;10.20;4.93;;;9.10;1.00;;;;;;5073474;28;20455;-72
2021/03/09 10:45:30;;;;;;;9.40;4.63;;;9.20;1.00;;;;;;5073526;28;20420;-73
2021/03/09 10:48:00;;;;;;;8.27;4.37;;;9.50;1.00;;;;;;5073358;28;20955;-79
2021/03/09 10:50:44;;;;;;;9.90;5.30;;;9.70;1.00;;;;;;5068341;28;20770;-76
2021/03/09 10:53:47;;;;;;;13.33;5.10;;;9.60;1.00;;;;;;5074539;28;20860;-80
2021/03/09 10:56:13;;;;;;;9.97;5.50;;;9.70;1.00;;;;;;5067990;28;20446;-76
2021/03/09 10:58:40;;;;;;;7.77;4.10;;;9.60;1.00;;;;;;5054557;28;20932;-76
2021/03/09 11:01:06;;;;;;;8.73;4.67;;;9.60;1.00;;;;;;5054287;28;20402;-75
2021/03/09 11:03:41;;;;;;;8.43;4.67;;;9.70;1.00;;;;;;5061106;28;20432;-78
2021/03/09 11:06:07;;;;;;;8.93;3.90;;;;;;;;;;5084846;28;20683;-72
2021/03/09 11:08:33;;;;;;;8.13;4.60;;;10.00;1.00;;;;;;5063195;28;20409;-73
2021/03/09 11:10:59;;;;;;;7.60;3.70;;;;;;;;;;5070279;28;20981;-80
2021/03/09 11:13:25;;;;;;;9.23;5.10;;;;;;;;;;5073201;28;20250;-74
2021/03/09 11:15:51;;;;;;;11.20;5.20;;;;;;;;;;5071061;28;20514;-75
2021/03/09 11:18:17;;;;;;;9.87;5.00;;;;;;;;;;5072942;28;20400;-76
2021/03/09 11:20:43;;;;;;;7.97;5.03;;;10.00;1.00;;;;;;5072570;28;20396;-79
2021/03/09 11:23:08;;;;;;;8.13;5.10;;;10.00;1.00;;;;;;5066769;28;20532;-75
2021/03/09 11:25:36;;;;;;;13.50;5.83;;;;;;;;;;5064990;28;20441;-78
2021/03/09 11:28:05;;;;;;;7.03;3.83;;;10.00;1.00;;;;;;5072878;28;20163;-76
2021/03/09 11:30:32;;;;;;;7.00;4.13;;;10.00;1.00;;;;;;5072487;28;20429;-75
2021/03/09 11:32:58;;;;;;;5.30;3.33;;;;;;;;;;5071595;28;20570;-75
2021/03/09 11:35:23;;;;;;;7.60;4.20;;;9.90;1.00;;;;;;5070724;28;20443;-77
2021/03/09 11:37:49;;;;;;;7.03;3.47;;;10.10;1.00;;;;;;5055499;28;20438;-74
2021/03/09 11:40:15;;;;;;;6.00;3.37;;;10.10;1.00;;;;;;5054030;28;20234;-73
2021/03/09 11:42:41;;;;;;;5.53;3.73;;;;;;;;;;5061908;28;20224;-72
2021/03/09 11:45:07;;;;;;;9.23;3.33;;;10.40;1.00;;;;;;5073496;28;20386;-72
2021/03/09 11:47:33;;;;;;;7.30;3.47;;;10.30;1.00;;;;;;5072028;28;20432;-72
2021/03/09 11:49:59;;;;;;;9.53;4.53;;;;;;;;;;5073345;28;20467;-72
2021/03/09 11:52:25;;;;;;;9.17;3.93;;;10.00;1.00;;;;;;5073806;28;20397;-71
2021/03/09 11:54:52;;;;;;;8.43;4.43;;;10.10;1.00;;;;;;5073134;28;20607;-72
2021/03/09 11:57:18;;;;;;;13.17;4.20;;;10.10;1.00;;;;;;5073312;28;20183;-72
2021/03/09 11:59:44;;;;;;;5.43;2.63;;;;;;;;;;5073069;28;20412;-72
2021/03/09 12:02:10;;;;;;;10.17;5.30;;;9.80;1.00;;;;;;5088709;28;20491;-72
2021/03/09 12:04:36;;;;;;;10.80;4.67;;;;;;;;;;5072363;28;20423;-72
2021/03/09 12:07:02;;;;;;;10.93;5.37;;;9.80;1.00;;;;;;5073561;28;20987;-72
2021/03/09 12:09:28;;;;;;;7.20;4.03;;;9.80;1.00;;;;;;5073338;28;20401;-72
2021/03/09 12:11:54;;;;;;;6.93;3.37;;;;;;;;;;5067042;28;20182;-72
2021/03/09 12:14:20;;;;;;;15.40;5.30;;;;;;;;;;5070771;28;20473;-72
2021/03/09 12:16:46;;;;;;;13.40;5.37;;;;;;;;;;5091152;28;20447;-72
2021/03/09 12:19:11;;;;;;;11.50;5.33;;;9.80;1.00;;;;;;5072251;28;20861;-71
2021/03/09 12:21:37;;;;;;;9.60;5.00;;;;;;;;;;5072216;28;20409;-71
2021/03/09 12:24:03;;;;;;;10.47;5.17;;;10.00;1.00;;;;;;5071782;28;20179;-72
2021/03/09 12:26:32;;;;;;;12.73;5.07;;;;;;;;;;5052429;28;20504;-72
2021/03/09 12:28:58;;;;;;;11.50;5.40;;;;;;;;;;5056551;28;20424;-72
2021/03/09 12:31:24;;;;;;;13.13;5.17;;;;;;;;;;5052226;28;20490;-71
2021/03/09 12:33:50;;;;;;;11.53;4.80;;;10.30;1.00;;;;;;5052189;28;20765;-71
2021/03/09 12:36:16;;;;;;;10.00;4.97;;;10.50;1.00;;;;;;5057903;28;20550;-71
2021/03/09 12:38:42;;;;;;;11.70;5.40;;;;;;;;;;5065276;28;20587;-71
2021/03/09 12:41:08;;;;;;;10.90;4.67;;;;;;;;;;5065323;28;20182;-71
2021/03/09 12:43:34;;;;;;;12.03;4.93;;;;;;;;;;5071066;28;20461;-71
2021/03/09 12:46:00;;;;;;;10.43;5.13;;;;;;;;;;5060398;28;20406;-71
2021/03/09 12:48:26;;;;;;;8.90;4.73;;;;;;;;;;5057083;28;20793;-71
2021/03/09 12:50:51;;;;;;;7.43;4.30;;;10.50;1.00;;;;;;5071942;28;20793;-71
2021/03/09 12:53:17;;;;;;;8.80;4.50;;;;;;;;;;5072363;28;20410;-71
2021/03/09 12:55:43;;;;;;;8.73;4.87;;;10.90;1.00;;;;;;5072008;28;20198;-71
2021/03/09 12:58:09;;;;;;;8.97;3.60;;;;;;;;;;5086182;28;20415;-71
2021/03/09 13:00:35;;;;;;;10.63;4.37;;;;;;;;;;5072811;28;20171;-71
2021/03/09 13:03:01;;;;;;;7.53;3.67;;;;;;;;;;5075485;28;20447;-71
2021/03/09 13:05:27;;;;;;;5.03;3.40;;;10.70;1.00;;;;;;5066575;28;20956;-71
2021/03/09 13:07:52;;;;;;;6.43;3.50;;;10.60;1.00;;;;;;5072938;28;20563;-75
2021/03/09 13:10:18;;;;;;;7.80;4.07;;;;;;;;;;5066678;28;20526;-76
2021/03/09 13:12:44;;;;;;;7.13;4.07;;;;;;;;;;5075102;28;20178;-76
2021/03/09 13:15:11;;;;;;;8.87;4.10;;;10.60;1.00;;;;;;5074829;28;20401;-76
2021/03/09 13:17:38;;;;;;;10.93;4.30;;;10.30;1.00;;;;;;5075250;28;20445;-76
2021/03/09 13:20:12;;;;;;;3.57;2.97;;;10.30;1.00;;;;;;5075068;28;20767;-76
2021/03/09 13:22:39;;;;;;;9.63;3.90;;;10.00;1.00;;;;;;5074122;28;20428;-72
2021/03/09 13:25:06;;;;;;;4.97;2.60;;;9.90;1.00;;;;;;5075084;28;20401;-71
2021/03/09 13:27:32;;;;;;;5.20;3.83;;;9.80;1.00;;;;;;5074981;28;20401;-70
2021/03/09 13:29:58;;;;;;;6.50;3.90;;;9.60;1.00;;;;;;5087125;28;20494;-71
2021/03/09 13:32:24;;;;;;;5.60;3.17;;;;;;;;;;5095586;28;20194;-71
2021/03/09 13:34:50;;;;;;;8.00;3.80;;;9.40;1.00;;;;;;5094991;28;20178;-71
2021/03/09 13:37:16;;;;;;;8.67;3.50;;;;;;;;;;5082172;28;20518;-71
2021/03/09 13:39:42;;;;;;;8.37;3.70;;;;;;;;;;5058352;28;20279;-71
2021/03/09 13:42:08;;;;;;;6.63;3.50;;;;;;;;;;5057556;28;20834;-71
2021/03/09 13:44:34;;;;;;;8.30;3.97;;;;;;;;;;5063179;28;20418;-71